sensor_id;sensor_type;location;lat;lon;timestamp;P1;durP1;ratioP1;P2;durP2;ratioP2
8683;SDS011;4379;59.744;18.206;2024-03-08T00:02:15;1.67;;;1.57;;
8683;SDS011;4379;59.744;18.206;2024-03-08T00:04:42;1.70;;;1.60;;
8683;SDS011;4379;59.744;18.206;2024-03-08T00:07:11;1.73;;;1.63;;
8683;SDS011;4379;59.744;18.206;2024-03-08T00:09:39;1.80;;;1.70;;
8683;SDS011;4379;59.744;18.206;2024-03-08T00:12:07;1.80;;;1.70;;
8683;SDS011;4379;59.744;18.206;2024-03-08T00:14:34;2.07;;;1.97;;
8683;SDS011;4379;59.744;18.206;2024-03-08T00:17:03;2.03;;;1.93;;
8683;SDS011;4379;59.744;18.206;2024-03-08T00:19:31;2.03;;;1.93;;
8683;SDS011;4379;59.744;18.206;2024-03-08T00:21:58;2.10;;;2.00;;
8683;SDS011;4379;59.744;18.206;2024-03-08T00:24:25;1.90;;;1.80;;
8683;SDS011;4379;59.744;18.206;2024-03-08T00:26:52;2.03;;;1.83;;
8683;SDS011;4379;59.744;18.206;2024-03-08T00:29:20;2.30;;;2.13;;
8683;SDS011;4379;59.744;18.206;2024-03-08T00:31:48;2.33;;;2.00;;
8683;SDS011;4379;59.744;18.206;2024-03-08T00:34:15;2.03;;;1.93;;
8683;SDS011;4379;59.744;18.206;2024-03-08T00:36:42;1.83;;;1.73;;
8683;SDS011;4379;59.744;18.206;2024-03-08T00:39:12;1.70;;;1.60;;
8683;SDS011;4379;59.744;18.206;2024-03-08T00:41:39;2.03;;;1.90;;
8683;SDS011;4379;59.744;18.206;2024-03-08T00:44:07;1.77;;;1.40;;
8683;SDS011;4379;59.744;18.206;2024-03-08T00:46:34;2.60;;;1.80;;
8683;SDS011;4379;59.744;18.206;2024-03-08T00:49:01;1.83;;;1.50;;
8683;SDS011;4379;59.744;18.206;2024-03-08T00:51:28;2.40;;;1.80;;
8683;SDS011;4379;59.744;18.206;2024-03-08T00:53:55;1.60;;;1.50;;
8683;SDS011;4379;59.744;18.206;2024-03-08T00:56:22;1.70;;;1.60;;
8683;SDS011;4379;59.744;18.206;2024-03-08T00:58:51;1.70;;;1.60;;
8683;SDS011;4379;59.744;18.206;2024-03-08T01:01:19;1.70;;;1.60;;
8683;SDS011;4379;59.744;18.206;2024-03-08T01:03:46;1.80;;;1.70;;
8683;SDS011;4379;59.744;18.206;2024-03-08T01:06:15;1.87;;;1.77;;
8683;SDS011;4379;59.744;18.206;2024-03-08T01:08:42;2.07;;;1.97;;
8683;SDS011;4379;59.744;18.206;2024-03-08T01:11:09;2.10;;;2.00;;
8683;SDS011;4379;59.744;18.206;2024-03-08T01:13:37;2.70;;;1.90;;
8683;SDS011;4379;59.744;18.206;2024-03-08T01:16:04;1.93;;;1.83;;
8683;SDS011;4379;59.744;18.206;2024-03-08T01:18:32;2.17;;;1.90;;
8683;SDS011;4379;59.744;18.206;2024-03-08T01:20:59;2.10;;;1.90;;
8683;SDS011;4379;59.744;18.206;2024-03-08T01:23:26;1.97;;;1.87;;
8683;SDS011;4379;59.744;18.206;2024-03-08T01:25:53;1.90;;;1.80;;
8683;SDS011;4379;59.744;18.206;2024-03-08T01:28:24;2.20;;;2.00;;
8683;SDS011;4379;59.744;18.206;2024-03-08T01:30:52;1.77;;;1.67;;
8683;SDS011;4379;59.744;18.206;2024-03-08T01:33:25;2.00;;;1.90;;
8683;SDS011;4379;59.744;18.206;2024-03-08T01:35:53;1.60;;;1.50;;
8683;SDS011;4379;59.744;18.206;2024-03-08T01:38:20;2.20;;;1.63;;
8683;SDS011;4379;59.744;18.206;2024-03-08T01:40:48;1.60;;;1.50;;
8683;SDS011;4379;59.744;18.206;2024-03-08T01:43:22;1.90;;;1.80;;
8683;SDS011;4379;59.744;18.206;2024-03-08T01:45:55;1.67;;;1.60;;
8683;SDS011;4379;59.744;18.206;2024-03-08T01:48:26;1.70;;;1.60;;
8683;SDS011;4379;59.744;18.206;2024-03-08T01:50:56;1.67;;;1.57;;
8683;SDS011;4379;59.744;18.206;2024-03-08T01:53:25;1.80;;;1.70;;
8683;SDS011;4379;59.744;18.206;2024-03-08T01:55:56;1.83;;;1.73;;
8683;SDS011;4379;59.744;18.206;2024-03-08T01:58:24;1.70;;;1.60;;
8683;SDS011;4379;59.744;18.206;2024-03-08T02:00:56;1.77;;;1.67;;
8683;SDS011;4379;59.744;18.206;2024-03-08T02:03:24;1.67;;;1.57;;
8683;SDS011;4379;59.744;18.206;2024-03-08T02:05:51;1.30;;;1.30;;
8683;SDS011;4379;59.744;18.206;2024-03-08T02:08:19;1.90;;;1.80;;
8683;SDS011;4379;59.744;18.206;2024-03-08T02:10:49;1.70;;;1.60;;
8683;SDS011;4379;59.744;18.206;2024-03-08T02:13:17;1.97;;;1.87;;
8683;SDS011;4379;59.744;18.206;2024-03-08T02:18:19;1.43;;;1.40;;
8683;SDS011;4379;59.744;18.206;2024-03-08T02:20:57;1.53;;;1.50;;
8683;SDS011;4379;59.744;18.206;2024-03-08T02:23:29;1.70;;;1.60;;
8683;SDS011;4379;59.744;18.206;2024-03-08T02:25:56;1.37;;;1.30;;
8683;SDS011;4379;59.744;18.206;2024-03-08T02:28:24;1.87;;;1.77;;
8683;SDS011;4379;59.744;18.206;2024-03-08T02:30:55;1.70;;;1.60;;
8683;SDS011;4379;59.744;18.206;2024-03-08T02:33:24;1.60;;;1.50;;
8683;SDS011;4379;59.744;18.206;2024-03-08T02:35:52;1.50;;;1.40;;
8683;SDS011;4379;59.744;18.206;2024-03-08T02:38:20;1.70;;;1.60;;
8683;SDS011;4379;59.744;18.206;2024-03-08T02:40:49;1.70;;;1.60;;
8683;SDS011;4379;59.744;18.206;2024-03-08T02:43:18;2.30;;;2.20;;
8683;SDS011;4379;59.744;18.206;2024-03-08T02:45:46;2.03;;;1.60;;
8683;SDS011;4379;59.744;18.206;2024-03-08T02:48:13;1.80;;;1.70;;
8683;SDS011;4379;59.744;18.206;2024-03-08T02:50:43;2.17;;;2.07;;
8683;SDS011;4379;59.744;18.206;2024-03-08T02:53:12;1.80;;;1.70;;
8683;SDS011;4379;59.744;18.206;2024-03-08T02:55:40;1.57;;;1.47;;
8683;SDS011;4379;59.744;18.206;2024-03-08T02:58:08;1.83;;;1.73;;
8683;SDS011;4379;59.744;18.206;2024-03-08T03:00:37;1.80;;;1.60;;
8683;SDS011;4379;59.744;18.206;2024-03-08T03:03:07;1.60;;;1.50;;
8683;SDS011;4379;59.744;18.206;2024-03-08T03:05:35;2.10;;;2.00;;
8683;SDS011;4379;59.744;18.206;2024-03-08T03:08:02;2.80;;;2.23;;
8683;SDS011;4379;59.744;18.206;2024-03-08T03:10:36;4.47;;;1.93;;
8683;SDS011;4379;59.744;18.206;2024-03-08T03:13:03;3.10;;;1.60;;
8683;SDS011;4379;59.744;18.206;2024-03-08T03:15:31;2.90;;;1.80;;
8683;SDS011;4379;59.744;18.206;2024-03-08T03:18:00;5.20;;;2.20;;
8683;SDS011;4379;59.744;18.206;2024-03-08T03:20:28;5.03;;;1.93;;
8683;SDS011;4379;59.744;18.206;2024-03-08T03:23:07;2.43;;;1.90;;
8683;SDS011;4379;59.744;18.206;2024-03-08T03:25:35;3.60;;;2.07;;
8683;SDS011;4379;59.744;18.206;2024-03-08T03:28:05;1.83;;;1.73;;
8683;SDS011;4379;59.744;18.206;2024-03-08T03:30:34;1.57;;;1.40;;
8683;SDS011;4379;59.744;18.206;2024-03-08T03:33:02;2.00;;;1.90;;
8683;SDS011;4379;59.744;18.206;2024-03-08T03:35:34;2.93;;;2.17;;
8683;SDS011;4379;59.744;18.206;2024-03-08T03:38:03;3.93;;;1.90;;
8683;SDS011;4379;59.744;18.206;2024-03-08T03:40:39;2.20;;;2.10;;
8683;SDS011;4379;59.744;18.206;2024-03-08T03:43:10;2.20;;;2.10;;
8683;SDS011;4379;59.744;18.206;2024-03-08T03:45:38;2.20;;;2.10;;
8683;SDS011;4379;59.744;18.206;2024-03-08T03:48:07;1.90;;;1.80;;
8683;SDS011;4379;59.744;18.206;2024-03-08T03:50:38;2.20;;;2.10;;
8683;SDS011;4379;59.744;18.206;2024-03-08T03:53:06;2.87;;;2.00;;
8683;SDS011;4379;59.744;18.206;2024-03-08T03:55:37;1.67;;;1.57;;
8683;SDS011;4379;59.744;18.206;2024-03-08T03:58:06;1.83;;;1.73;;
8683;SDS011;4379;59.744;18.206;2024-03-08T04:00:33;1.93;;;1.80;;
8683;SDS011;4379;59.744;18.206;2024-03-08T04:03:00;3.03;;;2.13;;
8683;SDS011;4379;59.744;18.206;2024-03-08T04:05:27;1.70;;;1.60;;
8683;SDS011;4379;59.744;18.206;2024-03-08T04:07:55;2.43;;;2.23;;
8683;SDS011;4379;59.744;18.206;2024-03-08T04:10:23;2.30;;;2.03;;
8683;SDS011;4379;59.744;18.206;2024-03-08T04:12:50;2.73;;;2.53;;
8683;SDS011;4379;59.744;18.206;2024-03-08T04:15:18;2.10;;;2.00;;
8683;SDS011;4379;59.744;18.206;2024-03-08T04:17:47;2.60;;;2.40;;
8683;SDS011;4379;59.744;18.206;2024-03-08T04:20:14;2.77;;;2.10;;
8683;SDS011;4379;59.744;18.206;2024-03-08T04:22:41;5.53;;;2.43;;
8683;SDS011;4379;59.744;18.206;2024-03-08T04:25:11;4.43;;;2.40;;
8683;SDS011;4379;59.744;18.206;2024-03-08T04:27:38;4.23;;;2.60;;
8683;SDS011;4379;59.744;18.206;2024-03-08T04:30:05;2.60;;;2.40;;
8683;SDS011;4379;59.744;18.206;2024-03-08T04:32:35;2.20;;;2.10;;
8683;SDS011;4379;59.744;18.206;2024-03-08T04:35:03;2.20;;;2.10;;
8683;SDS011;4379;59.744;18.206;2024-03-08T04:37:30;8.43;;;2.50;;
8683;SDS011;4379;59.744;18.206;2024-03-08T04:39:58;2.93;;;2.33;;
8683;SDS011;4379;59.744;18.206;2024-03-08T04:42:26;4.73;;;2.80;;
8683;SDS011;4379;59.744;18.206;2024-03-08T04:44:56;2.63;;;2.43;;
8683;SDS011;4379;59.744;18.206;2024-03-08T04:47:24;2.60;;;2.40;;
8683;SDS011;4379;59.744;18.206;2024-03-08T04:49:51;3.00;;;2.80;;
8683;SDS011;4379;59.744;18.206;2024-03-08T04:52:19;3.43;;;2.40;;
8683;SDS011;4379;59.744;18.206;2024-03-08T04:54:48;2.70;;;2.50;;
8683;SDS011;4379;59.744;18.206;2024-03-08T04:57:15;3.63;;;2.67;;
8683;SDS011;4379;59.744;18.206;2024-03-08T04:59:45;2.33;;;2.23;;
8683;SDS011;4379;59.744;18.206;2024-03-08T05:02:12;3.50;;;2.50;;
8683;SDS011;4379;59.744;18.206;2024-03-08T05:04:39;3.43;;;2.20;;
8683;SDS011;4379;59.744;18.206;2024-03-08T05:07:07;2.70;;;2.50;;
8683;SDS011;4379;59.744;18.206;2024-03-08T05:09:34;2.97;;;2.33;;
8683;SDS011;4379;59.744;18.206;2024-03-08T05:12:02;7.27;;;2.43;;
8683;SDS011;4379;59.744;18.206;2024-03-08T05:14:30;4.10;;;2.53;;
8683;SDS011;4379;59.744;18.206;2024-03-08T05:16:57;2.60;;;2.40;;
8683;SDS011;4379;59.744;18.206;2024-03-08T05:19:24;3.77;;;2.30;;
8683;SDS011;4379;59.744;18.206;2024-03-08T05:21:51;2.80;;;2.60;;
8683;SDS011;4379;59.744;18.206;2024-03-08T05:24:19;2.77;;;2.47;;
8683;SDS011;4379;59.744;18.206;2024-03-08T05:26:46;2.23;;;2.03;;
8683;SDS011;4379;59.744;18.206;2024-03-08T05:29:14;2.27;;;2.17;;
8683;SDS011;4379;59.744;18.206;2024-03-08T05:31:43;2.67;;;2.47;;
8683;SDS011;4379;59.744;18.206;2024-03-08T05:34:14;2.33;;;2.13;;
8683;SDS011;4379;59.744;18.206;2024-03-08T05:36:42;2.97;;;2.27;;
8683;SDS011;4379;59.744;18.206;2024-03-08T05:39:17;7.10;;;2.60;;
8683;SDS011;4379;59.744;18.206;2024-03-08T05:41:46;2.20;;;2.10;;
8683;SDS011;4379;59.744;18.206;2024-03-08T05:44:14;3.30;;;2.60;;
8683;SDS011;4379;59.744;18.206;2024-03-08T05:46:43;2.70;;;2.47;;
8683;SDS011;4379;59.744;18.206;2024-03-08T05:49:10;3.80;;;2.73;;
8683;SDS011;4379;59.744;18.206;2024-03-08T05:51:39;3.63;;;2.70;;
8683;SDS011;4379;59.744;18.206;2024-03-08T05:54:10;6.90;;;2.80;;
8683;SDS011;4379;59.744;18.206;2024-03-08T05:56:42;2.50;;;2.30;;
8683;SDS011;4379;59.744;18.206;2024-03-08T05:59:11;5.93;;;2.77;;
8683;SDS011;4379;59.744;18.206;2024-03-08T06:01:39;6.50;;;2.60;;
8683;SDS011;4379;59.744;18.206;2024-03-08T06:04:08;2.87;;;2.50;;
8683;SDS011;4379;59.744;18.206;2024-03-08T06:06:38;2.77;;;2.53;;
8683;SDS011;4379;59.744;18.206;2024-03-08T06:09:07;4.63;;;2.33;;
8683;SDS011;4379;59.744;18.206;2024-03-08T06:11:44;2.83;;;2.60;;
8683;SDS011;4379;59.744;18.206;2024-03-08T06:14:11;6.57;;;2.50;;
8683;SDS011;4379;59.744;18.206;2024-03-08T06:16:38;2.97;;;2.40;;
8683;SDS011;4379;59.744;18.206;2024-03-08T06:19:05;3.10;;;2.60;;
8683;SDS011;4379;59.744;18.206;2024-03-08T06:21:32;3.20;;;2.90;;
8683;SDS011;4379;59.744;18.206;2024-03-08T06:23:59;2.57;;;2.37;;
8683;SDS011;4379;59.744;18.206;2024-03-08T06:26:27;3.73;;;3.03;;
8683;SDS011;4379;59.744;18.206;2024-03-08T06:28:58;3.07;;;2.80;;
8683;SDS011;4379;59.744;18.206;2024-03-08T06:31:25;3.77;;;2.70;;
8683;SDS011;4379;59.744;18.206;2024-03-08T06:33:52;3.23;;;3.00;;
8683;SDS011;4379;59.744;18.206;2024-03-08T06:36:23;3.40;;;3.10;;
8683;SDS011;4379;59.744;18.206;2024-03-08T06:38:51;2.97;;;2.73;;
8683;SDS011;4379;59.744;18.206;2024-03-08T06:41:18;3.40;;;3.10;;
8683;SDS011;4379;59.744;18.206;2024-03-08T06:43:46;5.00;;;3.27;;
8683;SDS011;4379;59.744;18.206;2024-03-08T06:46:15;2.87;;;2.67;;
8683;SDS011;4379;59.744;18.206;2024-03-08T06:48:42;2.87;;;2.67;;
8683;SDS011;4379;59.744;18.206;2024-03-08T06:51:10;6.13;;;3.17;;
8683;SDS011;4379;59.744;18.206;2024-03-08T06:53:38;4.10;;;3.57;;
8683;SDS011;4379;59.744;18.206;2024-03-08T06:56:05;4.87;;;3.10;;
8683;SDS011;4379;59.744;18.206;2024-03-08T06:58:37;3.63;;;3.33;;
8683;SDS011;4379;59.744;18.206;2024-03-08T07:01:04;3.57;;;3.23;;
8683;SDS011;4379;59.744;18.206;2024-03-08T07:03:35;3.20;;;2.90;;
8683;SDS011;4379;59.744;18.206;2024-03-08T07:06:02;5.83;;;3.27;;
8683;SDS011;4379;59.744;18.206;2024-03-08T07:08:30;5.17;;;3.23;;
8683;SDS011;4379;59.744;18.206;2024-03-08T07:10:57;3.53;;;3.00;;
8683;SDS011;4379;59.744;18.206;2024-03-08T07:13:26;3.40;;;3.10;;
8683;SDS011;4379;59.744;18.206;2024-03-08T07:15:55;3.70;;;3.30;;
8683;SDS011;4379;59.744;18.206;2024-03-08T07:18:22;3.03;;;2.80;;
8683;SDS011;4379;59.744;18.206;2024-03-08T07:20:50;3.53;;;3.23;;
8683;SDS011;4379;59.744;18.206;2024-03-08T07:23:20;3.40;;;3.17;;
8683;SDS011;4379;59.744;18.206;2024-03-08T07:26:06;3.83;;;3.07;;
8683;SDS011;4379;59.744;18.206;2024-03-08T07:28:33;3.67;;;3.37;;
8683;SDS011;4379;59.744;18.206;2024-03-08T07:31:01;3.03;;;2.83;;
8683;SDS011;4379;59.744;18.206;2024-03-08T07:33:39;3.50;;;3.17;;
8683;SDS011;4379;59.744;18.206;2024-03-08T07:36:06;3.30;;;3.00;;
8683;SDS011;4379;59.744;18.206;2024-03-08T07:38:35;4.63;;;3.20;;
8683;SDS011;4379;59.744;18.206;2024-03-08T07:41:02;3.50;;;2.90;;
8683;SDS011;4379;59.744;18.206;2024-03-08T07:43:31;3.03;;;2.83;;
8683;SDS011;4379;59.744;18.206;2024-03-08T07:45:59;4.00;;;3.20;;
8683;SDS011;4379;59.744;18.206;2024-03-08T07:48:26;3.20;;;2.90;;
8683;SDS011;4379;59.744;18.206;2024-03-08T07:50:54;3.20;;;3.00;;
8683;SDS011;4379;59.744;18.206;2024-03-08T07:53:21;3.20;;;2.90;;
8683;SDS011;4379;59.744;18.206;2024-03-08T07:55:51;3.27;;;2.70;;
8683;SDS011;4379;59.744;18.206;2024-03-08T07:58:18;3.43;;;3.10;;
8683;SDS011;4379;59.744;18.206;2024-03-08T08:00:45;3.63;;;2.90;;
8683;SDS011;4379;59.744;18.206;2024-03-08T08:03:12;3.73;;;3.20;;
8683;SDS011;4379;59.744;18.206;2024-03-08T08:05:40;3.00;;;2.80;;
8683;SDS011;4379;59.744;18.206;2024-03-08T08:08:07;3.07;;;2.60;;
8683;SDS011;4379;59.744;18.206;2024-03-08T08:10:37;3.23;;;3.03;;
8683;SDS011;4379;59.744;18.206;2024-03-08T08:13:05;3.20;;;2.83;;
8683;SDS011;4379;59.744;18.206;2024-03-08T08:15:32;3.00;;;2.80;;
8683;SDS011;4379;59.744;18.206;2024-03-08T08:18:02;2.60;;;2.40;;
8683;SDS011;4379;59.744;18.206;2024-03-08T08:20:33;3.63;;;2.90;;
8683;SDS011;4379;59.744;18.206;2024-03-08T08:23:00;3.30;;;3.10;;
8683;SDS011;4379;59.744;18.206;2024-03-08T08:25:27;2.70;;;2.53;;
8683;SDS011;4379;59.744;18.206;2024-03-08T08:27:55;2.73;;;2.60;;
8683;SDS011;4379;59.744;18.206;2024-03-08T08:30:22;3.53;;;2.63;;
8683;SDS011;4379;59.744;18.206;2024-03-08T08:32:49;2.90;;;2.70;;
8683;SDS011;4379;59.744;18.206;2024-03-08T08:35:16;3.03;;;2.77;;
8683;SDS011;4379;59.744;18.206;2024-03-08T08:37:45;3.17;;;2.93;;
8683;SDS011;4379;59.744;18.206;2024-03-08T08:40:12;2.70;;;2.50;;
8683;SDS011;4379;59.744;18.206;2024-03-08T08:42:44;3.13;;;2.90;;
8683;SDS011;4379;59.744;18.206;2024-03-08T08:45:15;2.73;;;2.53;;
8683;SDS011;4379;59.744;18.206;2024-03-08T08:47:51;2.80;;;2.60;;
8683;SDS011;4379;59.744;18.206;2024-03-08T08:50:19;2.90;;;2.70;;
8683;SDS011;4379;59.744;18.206;2024-03-08T08:52:52;2.60;;;2.40;;
8683;SDS011;4379;59.744;18.206;2024-03-08T08:55:20;2.63;;;2.43;;
8683;SDS011;4379;59.744;18.206;2024-03-08T08:57:48;2.47;;;2.30;;
8683;SDS011;4379;59.744;18.206;2024-03-08T09:00:15;2.27;;;2.07;;
8683;SDS011;4379;59.744;18.206;2024-03-08T09:02:43;2.97;;;2.77;;
8683;SDS011;4379;59.744;18.206;2024-03-08T09:05:11;2.40;;;2.30;;
8683;SDS011;4379;59.744;18.206;2024-03-08T09:07:38;2.80;;;2.60;;
8683;SDS011;4379;59.744;18.206;2024-03-08T09:10:06;2.43;;;2.23;;
8683;SDS011;4379;59.744;18.206;2024-03-08T09:12:39;2.67;;;2.57;;
8683;SDS011;4379;59.744;18.206;2024-03-08T09:15:06;3.43;;;2.27;;
8683;SDS011;4379;59.744;18.206;2024-03-08T09:17:40;2.33;;;2.23;;
8683;SDS011;4379;59.744;18.206;2024-03-08T09:20:08;2.50;;;2.40;;
8683;SDS011;4379;59.744;18.206;2024-03-08T09:22:40;3.00;;;2.80;;
8683;SDS011;4379;59.744;18.206;2024-03-08T09:25:10;2.37;;;2.20;;
8683;SDS011;4379;59.744;18.206;2024-03-08T09:27:38;2.60;;;2.40;;
8683;SDS011;4379;59.744;18.206;2024-03-08T09:30:06;2.50;;;2.40;;
8683;SDS011;4379;59.744;18.206;2024-03-08T09:32:34;2.63;;;2.43;;
8683;SDS011;4379;59.744;18.206;2024-03-08T09:35:02;2.23;;;1.93;;
8683;SDS011;4379;59.744;18.206;2024-03-08T09:37:29;2.27;;;2.00;;
8683;SDS011;4379;59.744;18.206;2024-03-08T09:39:57;2.13;;;2.03;;
8683;SDS011;4379;59.744;18.206;2024-03-08T09:42:26;2.63;;;2.43;;
8683;SDS011;4379;59.744;18.206;2024-03-08T09:44:53;2.37;;;2.20;;
8683;SDS011;4379;59.744;18.206;2024-03-08T09:47:20;2.73;;;2.33;;
8683;SDS011;4379;59.744;18.206;2024-03-08T09:49:51;2.23;;;2.03;;
8683;SDS011;4379;59.744;18.206;2024-03-08T09:52:20;2.37;;;2.13;;
8683;SDS011;4379;59.744;18.206;2024-03-08T09:54:47;2.63;;;2.43;;
8683;SDS011;4379;59.744;18.206;2024-03-08T09:57:16;2.00;;;1.90;;
8683;SDS011;4379;59.744;18.206;2024-03-08T09:59:46;3.07;;;2.17;;
8683;SDS011;4379;59.744;18.206;2024-03-08T10:02:15;2.90;;;2.10;;
8683;SDS011;4379;59.744;18.206;2024-03-08T10:04:43;2.30;;;2.10;;
8683;SDS011;4379;59.744;18.206;2024-03-08T10:07:15;3.00;;;2.40;;
8683;SDS011;4379;59.744;18.206;2024-03-08T10:09:45;2.30;;;2.10;;
8683;SDS011;4379;59.744;18.206;2024-03-08T10:12:34;2.20;;;2.00;;
8683;SDS011;4379;59.744;18.206;2024-03-08T10:15:02;2.30;;;2.10;;
8683;SDS011;4379;59.744;18.206;2024-03-08T10:17:29;2.40;;;2.17;;
8683;SDS011;4379;59.744;18.206;2024-03-08T10:20:02;2.23;;;1.93;;
8683;SDS011;4379;59.744;18.206;2024-03-08T10:22:31;2.43;;;2.33;;
8683;SDS011;4379;59.744;18.206;2024-03-08T10:24:58;2.07;;;1.97;;
8683;SDS011;4379;59.744;18.206;2024-03-08T10:27:26;2.20;;;2.00;;
8683;SDS011;4379;59.744;18.206;2024-03-08T10:29:54;2.17;;;2.07;;
8683;SDS011;4379;59.744;18.206;2024-03-08T10:32:21;2.13;;;2.00;;
8683;SDS011;4379;59.744;18.206;2024-03-08T10:34:50;2.30;;;2.10;;
8683;SDS011;4379;59.744;18.206;2024-03-08T10:37:19;2.63;;;1.63;;
8683;SDS011;4379;59.744;18.206;2024-03-08T10:40:03;3.43;;;2.20;;
8683;SDS011;4379;59.744;18.206;2024-03-08T10:43:17;2.00;;;1.90;;
8683;SDS011;4379;59.744;18.206;2024-03-08T10:45:44;2.10;;;1.90;;
8683;SDS011;4379;59.744;18.206;2024-03-08T10:50:54;1.90;;;1.80;;
8683;SDS011;4379;59.744;18.206;2024-03-08T10:53:24;1.73;;;1.60;;
8683;SDS011;4379;59.744;18.206;2024-03-08T10:55:54;1.70;;;1.60;;
8683;SDS011;4379;59.744;18.206;2024-03-08T10:58:24;2.63;;;1.90;;
8683;SDS011;4379;59.744;18.206;2024-03-08T11:00:54;3.30;;;1.90;;
8683;SDS011;4379;59.744;18.206;2024-03-08T11:06:14;2.33;;;2.13;;
8683;SDS011;4379;59.744;18.206;2024-03-08T11:09:08;3.17;;;2.00;;
8683;SDS011;4379;59.744;18.206;2024-03-08T11:12:17;2.10;;;1.70;;
8683;SDS011;4379;59.744;18.206;2024-03-08T11:14:59;1.73;;;1.67;;
8683;SDS011;4379;59.744;18.206;2024-03-08T11:20:17;2.40;;;1.73;;
8683;SDS011;4379;59.744;18.206;2024-03-08T11:23:09;1.80;;;1.70;;
8683;SDS011;4379;59.744;18.206;2024-03-08T11:25:37;2.40;;;1.90;;
8683;SDS011;4379;59.744;18.206;2024-03-08T11:28:13;2.50;;;1.70;;
8683;SDS011;4379;59.744;18.206;2024-03-08T11:31:32;2.07;;;1.90;;
8683;SDS011;4379;59.744;18.206;2024-03-08T11:33:39;3.47;;;2.00;;
8683;SDS011;4379;59.744;18.206;2024-03-08T11:36:11;3.13;;;1.80;;
8683;SDS011;4379;59.744;18.206;2024-03-08T11:38:46;2.03;;;1.60;;
8683;SDS011;4379;59.744;18.206;2024-03-08T11:41:19;2.07;;;1.97;;
8683;SDS011;4379;59.744;18.206;2024-03-08T11:43:48;2.87;;;1.97;;
8683;SDS011;4379;59.744;18.206;2024-03-08T11:46:16;2.10;;;1.80;;
8683;SDS011;4379;59.744;18.206;2024-03-08T11:48:46;1.83;;;1.70;;
8683;SDS011;4379;59.744;18.206;2024-03-08T11:51:14;2.13;;;1.70;;
8683;SDS011;4379;59.744;18.206;2024-03-08T11:53:45;2.27;;;1.67;;
8683;SDS011;4379;59.744;18.206;2024-03-08T11:56:14;2.00;;;1.90;;
8683;SDS011;4379;59.744;18.206;2024-03-08T11:58:47;3.10;;;1.67;;
8683;SDS011;4379;59.744;18.206;2024-03-08T12:01:20;1.97;;;1.83;;
8683;SDS011;4379;59.744;18.206;2024-03-08T12:03:52;2.40;;;1.90;;
8683;SDS011;4379;59.744;18.206;2024-03-08T12:06:26;2.43;;;2.23;;
8683;SDS011;4379;59.744;18.206;2024-03-08T12:09:03;1.93;;;1.77;;
8683;SDS011;4379;59.744;18.206;2024-03-08T12:11:30;2.43;;;1.90;;
8683;SDS011;4379;59.744;18.206;2024-03-08T12:13:59;2.10;;;2.00;;
8683;SDS011;4379;59.744;18.206;2024-03-08T12:16:28;1.63;;;1.63;;
8683;SDS011;4379;59.744;18.206;2024-03-08T12:18:55;2.00;;;1.60;;
8683;SDS011;4379;59.744;18.206;2024-03-08T12:21:22;5.50;;;2.20;;
8683;SDS011;4379;59.744;18.206;2024-03-08T12:24:07;4.13;;;1.90;;
8683;SDS011;4379;59.744;18.206;2024-03-08T12:26:36;1.70;;;1.60;;
8683;SDS011;4379;59.744;18.206;2024-03-08T12:31:53;1.93;;;1.70;;
8683;SDS011;4379;59.744;18.206;2024-03-08T12:34:22;1.87;;;1.80;;
8683;SDS011;4379;59.744;18.206;2024-03-08T12:36:50;1.80;;;1.70;;
8683;SDS011;4379;59.744;18.206;2024-03-08T12:39:20;1.97;;;1.87;;
8683;SDS011;4379;59.744;18.206;2024-03-08T12:41:54;1.87;;;1.77;;
8683;SDS011;4379;59.744;18.206;2024-03-08T12:44:24;1.83;;;1.73;;
8683;SDS011;4379;59.744;18.206;2024-03-08T12:46:52;1.70;;;1.60;;
8683;SDS011;4379;59.744;18.206;2024-03-08T12:49:21;2.00;;;1.90;;
8683;SDS011;4379;59.744;18.206;2024-03-08T12:51:52;1.77;;;1.67;;
8683;SDS011;4379;59.744;18.206;2024-03-08T12:54:19;1.90;;;1.80;;
8683;SDS011;4379;59.744;18.206;2024-03-08T12:56:50;2.17;;;2.00;;
8683;SDS011;4379;59.744;18.206;2024-03-08T12:59:21;1.67;;;1.57;;
8683;SDS011;4379;59.744;18.206;2024-03-08T13:01:48;1.93;;;1.83;;
8683;SDS011;4379;59.744;18.206;2024-03-08T13:04:17;3.50;;;1.90;;
8683;SDS011;4379;59.744;18.206;2024-03-08T13:06:45;2.30;;;2.10;;
8683;SDS011;4379;59.744;18.206;2024-03-08T13:09:20;1.80;;;1.70;;
8683;SDS011;4379;59.744;18.206;2024-03-08T13:11:48;2.37;;;2.07;;
8683;SDS011;4379;59.744;18.206;2024-03-08T13:14:16;2.17;;;2.07;;
8683;SDS011;4379;59.744;18.206;2024-03-08T13:16:43;2.13;;;2.03;;
8683;SDS011;4379;59.744;18.206;2024-03-08T13:19:15;2.10;;;2.00;;
8683;SDS011;4379;59.744;18.206;2024-03-08T13:21:43;2.87;;;2.20;;
8683;SDS011;4379;59.744;18.206;2024-03-08T13:24:15;2.03;;;1.93;;
8683;SDS011;4379;59.744;18.206;2024-03-08T13:26:42;1.97;;;1.87;;
8683;SDS011;4379;59.744;18.206;2024-03-08T13:29:10;1.77;;;1.77;;
8683;SDS011;4379;59.744;18.206;2024-03-08T13:31:37;1.77;;;1.67;;
8683;SDS011;4379;59.744;18.206;2024-03-08T13:34:06;1.50;;;1.50;;
8683;SDS011;4379;59.744;18.206;2024-03-08T13:36:34;1.80;;;1.70;;
8683;SDS011;4379;59.744;18.206;2024-03-08T13:39:06;1.77;;;1.67;;
8683;SDS011;4379;59.744;18.206;2024-03-08T13:41:41;1.70;;;1.60;;
8683;SDS011;4379;59.744;18.206;2024-03-08T13:44:08;1.80;;;1.70;;
8683;SDS011;4379;59.744;18.206;2024-03-08T13:46:36;3.57;;;1.60;;
8683;SDS011;4379;59.744;18.206;2024-03-08T13:49:04;1.60;;;1.60;;
8683;SDS011;4379;59.744;18.206;2024-03-08T13:51:34;1.50;;;1.40;;
8683;SDS011;4379;59.744;18.206;2024-03-08T13:54:01;1.40;;;1.30;;
8683;SDS011;4379;59.744;18.206;2024-03-08T13:56:28;1.43;;;1.43;;
8683;SDS011;4379;59.744;18.206;2024-03-08T13:58:58;1.43;;;1.33;;
8683;SDS011;4379;59.744;18.206;2024-03-08T14:01:25;1.57;;;1.47;;
8683;SDS011;4379;59.744;18.206;2024-03-08T14:03:53;1.20;;;1.20;;
8683;SDS011;4379;59.744;18.206;2024-03-08T14:06:20;1.30;;;1.30;;
8683;SDS011;4379;59.744;18.206;2024-03-08T14:08:51;1.73;;;1.23;;
8683;SDS011;4379;59.744;18.206;2024-03-08T14:11:19;1.10;;;1.10;;
8683;SDS011;4379;59.744;18.206;2024-03-08T14:13:47;1.30;;;1.30;;
8683;SDS011;4379;59.744;18.206;2024-03-08T14:16:14;1.20;;;1.20;;
8683;SDS011;4379;59.744;18.206;2024-03-08T14:18:42;1.07;;;1.07;;
8683;SDS011;4379;59.744;18.206;2024-03-08T14:21:09;2.63;;;2.53;;
8683;SDS011;4379;59.744;18.206;2024-03-08T14:23:37;2.63;;;2.53;;
8683;SDS011;4379;59.744;18.206;2024-03-08T14:26:07;3.53;;;3.33;;
8683;SDS011;4379;59.744;18.206;2024-03-08T14:28:35;2.87;;;2.67;;
8683;SDS011;4379;59.744;18.206;2024-03-08T14:31:02;2.63;;;2.43;;
8683;SDS011;4379;59.744;18.206;2024-03-08T14:33:33;1.30;;;1.30;;
8683;SDS011;4379;59.744;18.206;2024-03-08T14:36:00;1.43;;;1.33;;
8683;SDS011;4379;59.744;18.206;2024-03-08T14:38:28;1.20;;;1.20;;
8683;SDS011;4379;59.744;18.206;2024-03-08T14:40:55;1.20;;;1.20;;
8683;SDS011;4379;59.744;18.206;2024-03-08T14:43:23;1.40;;;1.40;;
8683;SDS011;4379;59.744;18.206;2024-03-08T14:45:53;1.10;;;1.10;;
8683;SDS011;4379;59.744;18.206;2024-03-08T14:48:20;2.10;;;1.03;;
8683;SDS011;4379;59.744;18.206;2024-03-08T14:50:47;1.00;;;1.00;;
8683;SDS011;4379;59.744;18.206;2024-03-08T14:53:15;1.80;;;1.10;;
8683;SDS011;4379;59.744;18.206;2024-03-08T14:55:43;1.53;;;1.47;;
8683;SDS011;4379;59.744;18.206;2024-03-08T14:58:13;1.97;;;1.87;;
8683;SDS011;4379;59.744;18.206;2024-03-08T15:00:41;2.50;;;2.40;;
8683;SDS011;4379;59.744;18.206;2024-03-08T15:03:10;2.13;;;2.03;;
8683;SDS011;4379;59.744;18.206;2024-03-08T15:05:43;1.87;;;1.80;;
8683;SDS011;4379;59.744;18.206;2024-03-08T15:08:14;1.00;;;1.00;;
8683;SDS011;4379;59.744;18.206;2024-03-08T15:10:47;1.63;;;1.10;;
8683;SDS011;4379;59.744;18.206;2024-03-08T15:13:20;1.03;;;1.00;;
8683;SDS011;4379;59.744;18.206;2024-03-08T15:15:50;1.10;;;1.10;;
8683;SDS011;4379;59.744;18.206;2024-03-08T15:18:24;1.10;;;1.10;;
8683;SDS011;4379;59.744;18.206;2024-03-08T15:20:52;1.07;;;1.07;;
8683;SDS011;4379;59.744;18.206;2024-03-08T15:23:20;2.00;;;1.90;;
8683;SDS011;4379;59.744;18.206;2024-03-08T15:25:48;1.60;;;1.50;;
8683;SDS011;4379;59.744;18.206;2024-03-08T15:28:18;1.10;;;1.10;;